Данни от 20.05.2019 г. 08:07:01

Температура вътрешна: 22.4 °C
Температура външна: 20.9 °C
Атмосферно налягане: 989.7 hPa
Атмосферно налягане на морско равнище: 1007.3 hPa
Влажност: 64.0 %



История от последните 24 часа

Дата и часTin [°C]P [hPa]Psl [hPa]H [%]Tout [°C]
   20.05.2019 г. 08:00:02      22.4      989.7      1007.4      63.6      20.9   
   20.05.2019 г. 07:30:02      22.2      989.6      1007.3      61.9      20.8   
   20.05.2019 г. 07:00:02      22.2      989.3      1007.0      63.0      20.8   
   20.05.2019 г. 06:30:02      22.3      989.5      1007.2      63.4      21.1   
   20.05.2019 г. 06:00:02      22.3      988.7      1006.4      63.7      21.1   
   20.05.2019 г. 05:30:02      22.7      989.1      1006.7      63.2      21.0   
   20.05.2019 г. 05:00:02      22.7      989.3      1007.0      63.1      21.5   
   20.05.2019 г. 04:30:01      22.7      989.3      1006.9      63.7      21.8   
   20.05.2019 г. 04:00:02      22.7      989.3      1007.0      63.1      21.6   
   20.05.2019 г. 03:30:01      22.7      989.5      1007.1      63.7      22.0   
   20.05.2019 г. 03:00:02      22.7      989.6      1007.3      63.6      22.8   
   20.05.2019 г. 02:30:01      22.6      989.8      1007.5      63.8      23.1   
   20.05.2019 г. 02:00:02      22.6      989.5      1007.1      64.3      23.5   
   20.05.2019 г. 01:30:01      22.7      989.4      1007.0      64.9      23.3   
   20.05.2019 г. 01:00:02      22.7      989.2      1006.9      65.2      23.3   
   20.05.2019 г. 00:30:01      22.7      989.0      1006.7      65.5      23.4   
   20.05.2019 г. 00:00:02      22.8      989.0      1006.7      65.2      23.6   
   19.05.2019 г. 23:30:01      22.6      988.9      1006.6      65.7      24.0   
   19.05.2019 г. 23:00:02      22.6      989.2      1006.8      65.4      24.5   
   19.05.2019 г. 22:30:01      22.4      989.4      1007.0      65.5      25.3   
   19.05.2019 г. 22:00:02      22.2      989.5      1007.2      65.4      25.6   
   19.05.2019 г. 21:30:01      22.0      989.2      1006.9      66.0      25.6   
   19.05.2019 г. 21:00:02      21.9      989.3      1006.9      66.2      25.9   
   19.05.2019 г. 20:30:01      21.9      989.7      1007.4      66.1      26.3   
   19.05.2019 г. 20:00:02      21.9      990.0      1007.6      66.5      26.6   
   19.05.2019 г. 19:30:01      21.9      990.3      1008.0      66.8      27.3   
   19.05.2019 г. 19:00:02      21.7      989.9      1007.6      65.8      28.1   
   19.05.2019 г. 18:30:02      21.7      989.6      1007.2      65.7      29.3   
   19.05.2019 г. 18:00:02      21.6      990.2      1007.8      64.4      30.1   
   19.05.2019 г. 17:30:02      21.6      990.7      1008.3      63.7      30.1   
   19.05.2019 г. 17:00:02      21.7      990.5      1008.2      64.7      31.0   
   19.05.2019 г. 16:30:02      21.7      990.5      1008.2      65.6      32.0   
   19.05.2019 г. 16:00:02      21.8      990.4      1008.1      65.2      31.3   
   19.05.2019 г. 15:30:02      21.7      990.5      1008.2      65.1      30.3   
   19.05.2019 г. 15:00:02      21.6      990.5      1008.2      64.9      29.6   
   19.05.2019 г. 14:30:02      21.6      991.0      1008.7      64.8      28.8   
   19.05.2019 г. 14:00:02      21.5      991.2      1008.9      64.5      28.0   
   19.05.2019 г. 13:30:02      21.4      991.4      1009.1      65.0      27.1   
   19.05.2019 г. 13:00:01      21.2      991.5      1009.2      65.2      26.3   
   19.05.2019 г. 12:30:02      21.2      991.7      1009.4      65.0      25.4   
   19.05.2019 г. 12:00:01      21.1      991.9      1009.6      64.6      24.5   
   19.05.2019 г. 11:30:02      21.1      992.0      1009.7      65.2      23.6   
   19.05.2019 г. 11:00:01      21.1      992.1      1009.8      64.6      22.5   
   19.05.2019 г. 10:30:02      21.0      992.4      1010.1      64.4      21.4   
   19.05.2019 г. 10:00:01      21.0      992.4      1010.1      63.9      20.3   
   19.05.2019 г. 09:30:02      21.0      992.5      1010.2      64.0      19.0   
   19.05.2019 г. 09:00:01      21.0      992.6      1010.3      63.9      17.9   
   19.05.2019 г. 08:30:02      21.0      992.5      1010.2      63.8      16.9   

BaroSL graphic

TEMPE graphic